Time;durP1;ratioP1;P1;durP2;ratioP2;P2;SDS_P1;SDS_P2;PMS_P1;PMS_P2;Temp;Humidity;BMP_temperature;BMP_pressure;BME280_temperature;BME280_humidity;BME280_pressure;Samples;Min_cycle;Max_cycle;Signal;HPM_P1;HPM_P2
2023/02/23 00:01:22;;;;;;;8.45;6.13;;;-0.20;62.50;;;;;;4983209;28;20025;-61
2023/02/23 00:03:49;;;;;;;7.93;6.15;;;-0.20;62.50;;;;;;4984100;28;20030;-62
2023/02/23 00:06:18;;;;;;;7.07;6.18;;;-0.20;62.60;;;;;;4971653;28;20454;-63
2023/02/23 00:08:46;;;;;;;7.78;6.10;;;-0.20;62.40;;;;;;4974279;28;20038;-62
2023/02/23 00:11:13;;;;;;;10.40;6.88;;;-0.20;62.60;;;;;;4983483;28;20018;-62
2023/02/23 00:13:40;;;;;;;8.82;6.57;;;-0.30;62.30;;;;;;4976003;28;20038;-62
2023/02/23 00:16:14;;;;;;;7.47;5.80;;;-0.30;62.10;;;;;;4978628;28;20065;-62
2023/02/23 00:18:47;;;;;;;7.70;6.15;;;-0.30;62.30;;;;;;4982533;28;20504;-64
2023/02/23 00:21:24;;;;;;;8.18;6.43;;;-0.30;62.60;;;;;;4978068;28;20057;-54
2023/02/23 00:23:56;;;;;;;9.73;6.50;;;-0.30;62.50;;;;;;4970784;28;20471;-56
2023/02/23 00:26:23;;;;;;;;;;;-0.30;62.50;;;;;;4977637;28;20038;-53
2023/02/23 00:28:49;;;;;;;9.70;6.38;;;-0.40;62.30;;;;;;4977988;28;19913;-53
2023/02/23 00:31:16;;;;;;;8.80;6.05;;;-0.40;62.50;;;;;;4979550;28;20034;-60
2023/02/23 00:33:42;;;;;;;8.82;6.18;;;-0.40;62.40;;;;;;4984079;28;20121;-60
2023/02/23 00:36:13;;;;;;;8.65;6.47;;;-0.30;62.50;;;;;;4981123;28;20114;-60
2023/02/23 00:38:40;;;;;;;9.77;6.75;;;-0.40;62.50;;;;;;4975976;28;20094;-60
2023/02/23 00:41:07;;;;;;;7.80;6.00;;;-0.40;62.60;;;;;;4978976;28;20069;-57
2023/02/23 00:43:38;;;;;;;8.20;6.30;;;-0.40;62.70;;;;;;4982735;28;20118;-56
2023/02/23 00:46:04;;;;;;;8.00;5.70;;;-0.40;62.70;;;;;;4982344;28;20035;-57
2023/02/23 00:48:34;;;;;;;7.25;5.65;;;-0.40;62.60;;;;;;4972751;28;20082;-58
2023/02/23 00:51:04;;;;;;;10.30;7.18;;;-0.40;62.50;;;;;;4982151;28;20029;-60
2023/02/23 00:53:31;;;;;;;7.55;6.20;;;-0.40;62.50;;;;;;4984600;28;20040;-64
2023/02/23 00:55:57;;;;;;;10.60;7.30;;;-0.40;62.60;;;;;;4975070;28;20031;-63
2023/02/23 00:58:24;;;;;;;9.07;6.82;;;-0.50;62.40;;;;;;4976978;28;20054;-64
2023/02/23 01:00:49;;;;;;;8.80;6.55;;;-0.50;62.30;;;;;;4988217;28;20043;-59
2023/02/23 01:03:15;;;;;;;8.73;6.50;;;-0.50;62.60;;;;;;4987582;28;20129;-58
2023/02/23 01:05:42;;;;;;;8.02;6.18;;;-0.50;62.60;;;;;;4976924;28;20113;-64
2023/02/23 01:08:11;;;;;;;7.82;6.55;;;-0.60;62.70;;;;;;4983863;28;20038;-64
2023/02/23 01:10:50;;;;;;;8.07;6.68;;;-0.50;62.90;;;;;;4975602;28;20029;-63
2023/02/23 01:13:17;;;;;;;9.02;6.53;;;-0.60;63.00;;;;;;4970089;28;20034;-62
2023/02/23 01:15:43;;;;;;;8.38;6.63;;;-0.60;63.30;;;;;;4979562;28;20037;-61
2023/02/23 01:18:13;;;;;;;8.43;6.18;;;-0.60;63.20;;;;;;4976671;28;20027;-64
2023/02/23 01:20:40;;;;;;;7.53;6.10;;;-0.60;63.10;;;;;;4974361;28;20114;-61
2023/02/23 01:23:06;;;;;;;7.57;6.22;;;-0.60;63.80;;;;;;4976787;28;20896;-64
2023/02/23 01:25:33;;;;;;;7.55;5.93;;;-0.60;62.50;;;;;;4977954;28;20037;-62
2023/02/23 01:27:58;;;;;;;7.65;5.97;;;-0.60;62.50;;;;;;4975525;28;20027;-63
2023/02/23 01:30:24;;;;;;;9.50;6.72;;;-0.70;62.60;;;;;;4981568;28;20488;-49
2023/02/23 01:32:51;;;;;;;7.60;5.88;;;-0.70;62.60;;;;;;4980040;28;20031;-54
2023/02/23 01:35:17;;;;;;;7.20;5.72;;;-0.70;62.40;;;;;;4974421;28;20026;-59
2023/02/23 01:37:42;;;;;;;8.07;5.82;;;-0.70;62.40;;;;;;4976608;28;20085;-59
2023/02/23 01:40:14;;;;;;;8.30;6.15;;;-0.80;61.70;;;;;;4979169;28;20524;-58
2023/02/23 01:42:42;;;;;;;7.78;5.88;;;-0.80;61.60;;;;;;4975180;28;20039;-60
2023/02/23 01:45:23;;;;;;;6.72;5.35;;;-0.80;61.60;;;;;;4983929;28;20035;-60
2023/02/23 01:47:51;;;;;;;7.28;5.20;;;-0.80;61.40;;;;;;4976893;28;20039;-59
2023/02/23 01:50:18;;;;;;;7.13;5.40;;;-0.80;60.80;;;;;;4971201;28;20039;-59
2023/02/23 01:52:46;;;;;;;7.03;5.20;;;-0.90;60.70;;;;;;4968408;28;20027;-60
2023/02/23 01:55:14;;;;;;;7.95;5.82;;;-0.90;60.30;;;;;;4970102;28;20030;-62
2023/02/23 01:57:41;;;;;;;6.43;5.18;;;-1.00;60.40;;;;;;4984272;28;20070;-62
2023/02/23 02:00:12;;;;;;;7.10;5.68;;;-1.00;60.90;;;;;;4984141;28;20096;-63
2023/02/23 02:02:38;;;;;;;;;;;-1.10;60.80;;;;;;4978031;28;20030;-63
2023/02/23 02:05:11;;;;;;;8.57;5.82;;;-1.20;60.60;;;;;;4976491;28;19910;-63
2023/02/23 02:07:38;;;;;;;7.25;5.78;;;-1.20;60.90;;;;;;4974166;28;20038;-62
2023/02/23 02:12:45;;;;;;;6.47;5.30;;;-1.20;60.80;;;;;;4982101;28;20088;-63
2023/02/23 02:15:16;;;;;;;6.55;5.43;;;-1.20;60.90;;;;;;4975761;28;20034;-62
2023/02/23 02:18:26;;;;;;;7.07;5.70;;;-1.20;60.40;;;;;;4980880;28;20041;-61
2023/02/23 02:21:06;;;;;;;6.68;5.38;;;-1.20;60.50;;;;;;4984323;28;20335;-63
2023/02/23 02:23:44;;;;;;;6.90;4.93;;;-1.20;60.20;;;;;;4978629;28;20045;-61
2023/02/23 02:26:09;;;;;;;7.22;5.32;;;-1.20;59.80;;;;;;4967343;28;20035;-60
2023/02/23 02:28:49;;;;;;;5.72;5.00;;;-1.20;59.40;;;;;;4983473;28;20031;-60
2023/02/23 02:31:23;;;;;;;5.82;4.55;;;-1.20;59.60;;;;;;4973177;28;20057;-62
2023/02/23 02:33:59;;;;;;;5.57;4.70;;;-1.30;59.80;;;;;;4981243;28;20034;-62
2023/02/23 02:36:36;;;;;;;6.03;4.75;;;-1.30;59.90;;;;;;4964752;28;20532;-52
2023/02/23 02:39:22;;;;;;;5.47;4.95;;;-1.30;59.70;;;;;;4981521;28;20031;-52
2023/02/23 02:42:21;;;;;;;6.38;4.63;;;-1.30;59.80;;;;;;4972004;28;20042;-59
2023/02/23 02:45:06;;;;;;;4.90;4.40;;;-1.30;59.60;;;;;;4980943;28;20023;-59
2023/02/23 02:47:52;;;;;;;6.13;4.82;;;-1.30;59.30;;;;;;4967922;28;20109;-58
2023/02/23 02:50:30;;;;;;;6.13;5.00;;;-1.30;59.40;;;;;;4953990;28;20126;-60
2023/02/23 02:53:21;;;;;;;7.05;4.80;;;-1.30;59.30;;;;;;4976623;28;20026;-59
2023/02/23 02:55:47;;;;;;;6.63;5.28;;;-1.30;59.10;;;;;;4973913;28;20127;-60
2023/02/23 02:58:16;;;;;;;5.28;4.63;;;-1.40;59.40;;;;;;4970677;28;20034;-58
2023/02/23 04:19:37;;;;;;;5.93;5.10;;;-1.80;59.30;;;;;;4975484;28;20046;-63
2023/02/23 04:22:02;;;;;;;6.68;5.00;;;-1.80;59.10;;;;;;4977937;28;20061;-64
2023/02/23 04:24:28;;;;;;;7.30;5.30;;;-1.80;59.00;;;;;;4967795;28;20035;-63
2023/02/23 04:26:54;;;;;;;6.18;4.80;;;-1.90;58.90;;;;;;4985448;28;20031;-63
2023/02/23 04:29:19;;;;;;;5.75;4.90;;;-1.90;58.90;;;;;;4982904;28;20037;-63
2023/02/23 04:31:46;;;;;;;6.38;5.03;;;-1.90;59.00;;;;;;4980392;28;20034;-61
2023/02/23 04:34:11;;;;;;;5.53;4.60;;;-1.90;59.10;;;;;;4972177;28;20027;-62
2023/02/23 04:36:37;;;;;;;6.28;5.32;;;-1.80;59.10;;;;;;4980409;28;20052;-64
2023/02/23 04:39:03;;;;;;;6.78;5.13;;;-1.80;59.20;;;;;;4982443;28;20085;-65
2023/02/23 04:41:28;;;;;;;7.50;5.32;;;-1.80;59.30;;;;;;4982535;28;20038;-65
2023/02/23 04:43:54;;;;;;;6.00;5.10;;;-1.80;59.40;;;;;;4985677;28;20062;-65
2023/02/23 04:46:20;;;;;;;6.43;4.90;;;-1.80;59.50;;;;;;4977853;28;20053;-66
2023/02/23 04:48:46;;;;;;;6.20;5.22;;;-1.80;59.50;;;;;;4974918;28;20035;-64
2023/02/23 04:51:12;;;;;;;5.65;5.03;;;-1.70;59.60;;;;;;4984190;28;20695;-65
2023/02/23 04:53:38;;;;;;;7.68;5.32;;;-1.80;59.70;;;;;;4977376;28;20027;-65
2023/02/23 04:56:04;;;;;;;7.03;5.35;;;-1.70;59.90;;;;;;4976547;28;20035;-61
2023/02/23 04:58:29;;;;;;;6.78;5.30;;;-1.70;59.90;;;;;;4979860;28;20034;-59
2023/02/23 05:01:04;;;;;;;6.38;5.05;;;-1.70;59.80;;;;;;4979973;28;20034;-52
2023/02/23 05:03:29;;;;;;;6.82;5.30;;;-1.70;59.90;;;;;;4985509;28;20416;-51
2023/02/23 05:05:55;;;;;;;7.07;5.00;;;-1.70;60.10;;;;;;4980824;28;20022;-63
2023/02/23 05:08:20;;;;;;;6.20;5.32;;;-1.70;60.20;;;;;;4978184;28;20031;-63
2023/02/23 05:10:46;;;;;;;6.53;5.20;;;-1.60;60.10;;;;;;4973124;28;20034;-61
2023/02/23 05:13:12;;;;;;;6.80;5.13;;;-1.60;59.90;;;;;;4981149;28;20035;-61
2023/02/23 05:15:38;;;;;;;7.03;4.93;;;-1.60;59.80;;;;;;4970669;28;20478;-61
2023/02/23 05:18:04;;;;;;;6.18;4.90;;;-1.60;59.70;;;;;;4984964;28;20105;-60
2023/02/23 05:20:29;;;;;;;6.60;5.13;;;-1.60;59.70;;;;;;4976795;28;20165;-61
2023/02/23 05:22:55;;;;;;;6.68;5.15;;;-1.50;60.00;;;;;;4982674;28;20057;-61
2023/02/23 05:25:20;;;;;;;7.15;5.15;;;-1.50;59.90;;;;;;4977152;28;20050;-62
2023/02/23 05:27:46;;;;;;;6.25;5.35;;;-1.40;59.90;;;;;;4977170;28;20038;-61
2023/02/23 05:30:14;;;;;;;6.88;5.30;;;-1.40;59.80;;;;;;4975360;28;20481;-61
2023/02/23 05:32:40;;;;;;;6.32;5.20;;;-1.40;59.70;;;;;;4976116;28;20031;-64
2023/02/23 05:35:06;;;;;;;6.13;5.20;;;-1.30;59.50;;;;;;4976019;28;20042;-65
2023/02/23 05:37:33;;;;;;;5.35;4.43;;;-1.30;59.40;;;;;;4986949;28;20025;-65
2023/02/23 05:39:58;;;;;;;6.20;5.10;;;-1.20;59.70;;;;;;4981102;28;20176;-65
2023/02/23 05:42:24;;;;;;;5.70;4.80;;;-1.20;59.50;;;;;;4973645;28;20134;-64
2023/02/23 05:44:50;;;;;;;7.45;5.30;;;-1.10;59.40;;;;;;4983263;28;20026;-62
2023/02/23 05:47:16;;;;;;;7.15;4.78;;;-1.10;59.30;;;;;;4977598;28;20070;-63
2023/02/23 05:49:42;;;;;;;6.93;5.20;;;-1.00;59.40;;;;;;4980630;28;20030;-65
2023/02/23 05:52:08;;;;;;;7.03;5.70;;;-1.00;59.40;;;;;;4965738;28;20049;-66
2023/02/23 05:54:33;;;;;;;7.68;5.60;;;-0.90;59.30;;;;;;4977224;28;20058;-65
2023/02/23 05:56:59;;;;;;;7.32;5.25;;;-0.80;59.20;;;;;;4975959;28;20554;-62
2023/02/23 05:59:25;;;;;;;7.20;5.70;;;-0.80;59.00;;;;;;4974912;28;20468;-62
2023/02/23 06:01:51;;;;;;;6.28;5.03;;;-0.70;58.90;;;;;;4974064;28;20058;-64
2023/02/23 06:04:17;;;;;;;6.45;4.70;;;-0.60;58.90;;;;;;4975754;28;20024;-62
2023/02/23 06:06:42;;;;;;;7.78;5.20;;;-0.60;58.50;;;;;;4974201;28;20054;-61
2023/02/23 06:09:08;;;;;;;6.68;5.38;;;-0.50;58.50;;;;;;4979864;28;20041;-62
2023/02/23 06:11:33;;;;;;;6.63;4.85;;;-0.50;58.30;;;;;;4973049;28;20341;-60
2023/02/23 06:13:59;;;;;;;6.82;5.55;;;-0.40;58.00;;;;;;4980064;28;20023;-60
2023/02/23 06:16:26;;;;;;;6.60;5.25;;;-0.40;57.90;;;;;;4976964;28;20113;-60
2023/02/23 06:18:52;;;;;;;7.15;5.68;;;-0.30;58.20;;;;;;4973688;28;20089;-59
2023/02/23 06:21:17;;;;;;;7.32;5.13;;;-0.20;58.20;;;;;;4967480;28;20437;-60
2023/02/23 06:23:44;;;;;;;6.25;4.75;;;-0.10;58.50;;;;;;4972814;28;20438;-60
2023/02/23 06:26:10;;;;;;;6.93;5.20;;;-0.10;58.40;;;;;;4970236;28;20031;-58
2023/02/23 06:28:36;;;;;;;7.78;5.38;;;0.00;58.30;;;;;;4976066;28;20031;-59
2023/02/23 06:31:01;;;;;;;8.13;6.18;;;0.10;58.40;;;;;;4973975;28;20895;-60
2023/02/23 06:33:27;;;;;;;5.65;4.95;;;0.10;58.10;;;;;;4967980;28;20070;-60
2023/02/23 06:35:53;;;;;;;6.50;5.03;;;0.20;58.00;;;;;;4971103;28;20031;-60
2023/02/23 06:38:19;;;;;;;6.38;5.00;;;0.30;58.00;;;;;;4975111;28;20041;-59
2023/02/23 06:40:45;;;;;;;9.10;5.80;;;0.30;57.80;;;;;;4975041;28;20030;-59
2023/02/23 06:43:10;;;;;;;6.93;5.55;;;0.40;57.70;;;;;;4976749;28;20092;-59
2023/02/23 06:45:36;;;;;;;7.40;5.10;;;0.40;57.70;;;;;;4975213;28;20461;-59
2023/02/23 06:48:02;;;;;;;6.65;5.28;;;0.40;57.70;;;;;;4967054;28;20035;-60
2023/02/23 06:50:28;;;;;;;6.60;5.15;;;0.50;57.60;;;;;;4967184;28;20035;-59
2023/02/23 06:52:55;;;;;;;7.10;5.53;;;0.50;57.40;;;;;;4973319;28;20054;-59
2023/02/23 06:55:21;;;;;;;7.43;5.50;;;0.50;57.10;;;;;;4966153;28;20027;-60
2023/02/23 06:57:48;;;;;;;7.97;5.85;;;0.50;57.10;;;;;;4971222;28;20026;-59
2023/02/23 07:00:16;;;;;;;6.90;5.03;;;0.50;57.00;;;;;;4967009;28;20505;-60
2023/02/23 07:02:43;;;;;;;6.57;5.68;;;0.50;57.10;;;;;;4968709;28;20035;-59
2023/02/23 07:05:09;;;;;;;7.38;5.43;;;0.40;56.80;;;;;;4974042;28;20034;-60
2023/02/23 07:07:35;;;;;;;7.50;5.30;;;0.40;56.60;;;;;;4963422;28;20026;-60
2023/02/23 07:10:01;;;;;;;7.18;5.50;;;0.40;56.60;;;;;;4959128;28;20425;-60
2023/02/23 07:12:26;;;;;;;6.82;4.88;;;0.40;56.60;;;;;;4967452;28;20045;-60
2023/02/23 07:14:52;;;;;;;7.10;5.43;;;0.40;56.80;;;;;;4969927;28;20105;-62
2023/02/23 07:17:18;;;;;;;6.95;5.45;;;0.40;56.90;;;;;;4953988;28;20035;-59
2023/02/23 07:19:43;;;;;;;7.88;5.63;;;0.40;57.00;;;;;;4959316;28;20037;-61
2023/02/23 07:22:09;;;;;;;8.23;5.47;;;0.40;57.10;;;;;;4959303;28;20422;-61
2023/02/23 07:24:35;;;;;;;7.07;5.25;;;0.30;57.00;;;;;;4957275;28;21257;-61
2023/02/23 07:27:01;;;;;;;6.93;5.30;;;0.30;57.10;;;;;;4959400;28;20461;-60
2023/02/23 07:29:27;;;;;;;6.32;4.80;;;0.20;57.10;;;;;;4964504;28;20038;-60
2023/02/23 07:31:53;;;;;;;7.35;5.45;;;0.20;57.00;;;;;;4954168;28;20116;-61
2023/02/23 07:34:19;;;;;;;6.65;5.35;;;0.10;56.90;;;;;;4958534;28;20042;-61
2023/02/23 07:36:44;;;;;;;6.45;5.25;;;0.10;57.10;;;;;;4952246;28;20196;-61
2023/02/23 07:39:10;;;;;;;8.25;5.68;;;0.00;57.00;;;;;;4954328;28;20038;-58
2023/02/23 07:41:36;;;;;;;7.82;6.15;;;0.00;57.30;;;;;;4959930;28;20509;-60
2023/02/23 07:44:04;;;;;;;6.78;5.28;;;0.00;57.30;;;;;;4951259;28;20070;-63
2023/02/23 07:46:30;;;;;;;8.48;5.90;;;0.00;57.30;;;;;;4960748;28;20031;-60
2023/02/23 07:48:56;;;;;;;7.88;6.13;;;0.00;57.70;;;;;;4960062;28;20054;-60
2023/02/23 07:51:21;;;;;;;7.47;5.82;;;0.00;57.50;;;;;;4954552;28;20863;-59
2023/02/23 07:53:48;;;;;;;8.57;6.32;;;-0.10;57.30;;;;;;4960732;28;20125;-61
2023/02/23 07:56:14;;;;;;;6.47;5.68;;;-0.10;57.40;;;;;;4964243;28;20046;-61
2023/02/23 07:58:42;;;;;;;7.88;5.50;;;-0.10;57.60;;;;;;4954218;28;20039;-61
2023/02/23 08:01:09;;;;;;;6.93;5.68;;;-0.10;57.50;;;;;;4949904;28;20029;-62
2023/02/23 08:03:34;;;;;;;5.97;5.10;;;-0.10;58.00;;;;;;4960687;28;20732;-61
2023/02/23 08:06:00;;;;;;;7.88;5.97;;;-0.10;57.70;;;;;;4944249;28;20035;-60
2023/02/23 08:08:26;;;;;;;7.78;6.03;;;-0.10;57.40;;;;;;4932106;28;21954;-61
2023/02/23 08:10:59;;;;;;;8.93;5.97;;;-0.10;57.40;;;;;;4940860;28;20038;-60
2023/02/23 08:13:25;;;;;;;8.40;5.82;;;-0.10;57.50;;;;;;4936840;28;20034;-57
2023/02/23 08:15:50;;;;;;;8.13;5.93;;;-0.10;57.30;;;;;;4949087;28;20117;-60
2023/02/23 08:18:16;;;;;;;7.78;5.95;;;-0.10;57.10;;;;;;4963675;28;20023;-60
2023/02/23 08:20:42;;;;;;;7.85;5.93;;;-0.10;57.30;;;;;;4958705;28;20050;-58
2023/02/23 08:23:07;;;;;;;8.25;5.78;;;-0.10;57.60;;;;;;4955172;28;20082;-61
2023/02/23 08:25:34;;;;;;;7.03;5.82;;;-0.10;57.60;;;;;;4947566;28;20109;-60
2023/02/23 08:28:03;;;;;;;7.63;5.88;;;-0.10;57.20;;;;;;4954333;28;20046;-61
2023/02/23 08:30:30;;;;;;;8.35;6.03;;;-0.10;57.00;;;;;;4953282;28;20038;-61
2023/02/23 08:32:56;;;;;;;8.15;5.50;;;-0.20;57.10;;;;;;4952371;28;20088;-64
2023/02/23 08:35:21;;;;;;;8.15;6.00;;;-0.20;57.30;;;;;;4942869;28;20030;-59
2023/02/23 08:37:47;;;;;;;7.90;5.70;;;-0.20;57.30;;;;;;4947057;28;20923;-62
2023/02/23 08:40:14;;;;;;;8.10;5.57;;;-0.10;57.20;;;;;;4948082;28;20623;-62
2023/02/23 08:42:40;;;;;;;7.32;5.35;;;-0.10;57.10;;;;;;4943825;28;20132;-62
2023/02/23 08:45:07;;;;;;;7.15;5.18;;;-0.10;57.30;;;;;;4942016;28;20049;-62
2023/02/23 08:47:33;;;;;;;7.03;5.65;;;-0.10;58.00;;;;;;4952328;28;20873;-60
2023/02/23 08:49:59;;;;;;;7.78;6.03;;;-0.10;57.30;;;;;;4944435;28;20030;-61
2023/02/23 08:52:25;;;;;;;7.65;5.75;;;-0.10;57.60;;;;;;4945064;28;20043;-60
2023/02/23 08:54:50;;;;;;;7.90;5.93;;;-0.10;57.60;;;;;;4941286;28;20039;-61
2023/02/23 08:57:17;;;;;;;7.55;5.90;;;0.00;57.70;;;;;;4938174;28;21345;-61
2023/02/23 08:59:43;;;;;;;7.95;5.93;;;0.00;57.60;;;;;;4949067;28;20792;-61
2023/02/23 09:02:12;;;;;;;6.28;5.13;;;0.00;57.50;;;;;;4939387;28;20085;-63
2023/02/23 09:04:40;;;;;;;6.50;5.15;;;0.10;57.30;;;;;;4952481;28;20147;-61
2023/02/23 09:07:08;;;;;;;7.22;5.03;;;0.10;57.40;;;;;;4948835;28;20046;-60
2023/02/23 09:09:34;;;;;;;9.52;5.00;;;0.10;57.70;;;;;;4945757;28;20027;-62
2023/02/23 09:11:59;;;;;;;7.15;5.18;;;0.10;57.30;;;;;;4953187;28;20038;-61
2023/02/23 09:14:25;;;;;;;7.25;5.43;;;0.10;57.30;;;;;;4948838;28;20041;-60
2023/02/23 09:16:51;;;;;;;6.60;5.15;;;0.10;57.00;;;;;;4948090;28;20101;-61
2023/02/23 09:19:17;;;;;;;6.40;5.30;;;0.20;57.10;;;;;;4951200;28;21323;-63
2023/02/23 09:21:43;;;;;;;8.40;6.00;;;0.20;56.70;;;;;;4946229;28;20150;-60
2023/02/23 09:24:09;;;;;;;6.40;5.20;;;0.20;56.80;;;;;;4947887;28;20730;-63
2023/02/23 09:26:38;;;;;;;8.38;5.15;;;0.20;56.80;;;;;;4941626;28;20122;-61
2023/02/23 09:29:05;;;;;;;6.70;5.07;;;0.30;56.70;;;;;;4949151;28;20478;-61
2023/02/23 09:31:31;;;;;;;8.93;5.65;;;0.30;56.60;;;;;;4950174;28;20524;-60
2023/02/23 09:33:59;;;;;;;7.82;5.22;;;0.30;56.70;;;;;;4942457;28;20788;-61
2023/02/23 09:36:25;;;;;;;6.57;4.90;;;0.40;56.50;;;;;;4951197;28;20039;-62
2023/02/23 09:38:56;;;;;;;7.15;4.97;;;0.40;56.40;;;;;;4943879;28;20054;-60
2023/02/23 09:41:25;;;;;;;8.20;5.97;;;0.40;56.30;;;;;;4940964;28;20144;-61
2023/02/23 09:44:18;;;;;;;6.80;5.38;;;0.40;56.20;;;;;;4950820;28;20043;-60
2023/02/23 09:47:02;;;;;;;7.00;4.78;;;0.40;56.30;;;;;;4930587;28;20053;-60
2023/02/23 09:49:30;;;;;;;8.77;6.43;;;0.40;56.40;;;;;;4945909;28;20042;-59
2023/02/23 09:51:58;;;;;;;9.02;6.13;;;0.40;56.50;;;;;;4954296;28;20034;-59
2023/02/23 09:54:29;;;;;;;6.57;5.47;;;0.40;56.30;;;;;;4951300;28;20034;-60
2023/02/23 09:56:57;;;;;;;8.95;6.05;;;0.40;56.40;;;;;;4939089;28;20041;-61
2023/02/23 09:59:24;;;;;;;8.48;6.13;;;0.50;56.50;;;;;;4934968;28;20043;-61
2023/02/23 10:02:14;;;;;;;6.80;5.35;;;0.40;56.30;;;;;;4924844;28;20675;-59
2023/02/23 10:04:47;;;;;;;9.35;5.70;;;0.50;56.20;;;;;;4936792;28;20378;-60
2023/02/23 10:07:50;;;;;;;6.13;4.80;;;0.50;56.30;;;;;;4938522;28;20038;-60
2023/02/23 10:10:27;;;;;;;6.10;5.07;;;0.50;56.20;;;;;;4944994;28;20027;-61
2023/02/23 10:13:18;;;;;;;7.03;5.38;;;0.50;56.20;;;;;;4948090;28;20037;-60
2023/02/23 10:15:56;;;;;;;7.75;5.32;;;0.60;56.30;;;;;;4938028;28;20037;-60
2023/02/23 10:18:26;;;;;;;6.13;5.15;;;0.60;56.10;;;;;;4933588;28;20045;-60
2023/02/23 10:21:07;;;;;;;8.32;5.55;;;0.60;56.20;;;;;;4927687;28;20056;-59
2023/02/23 10:23:39;;;;;;;6.75;5.28;;;0.60;56.00;;;;;;4940485;28;20042;-58
2023/02/23 10:26:07;;;;;;;7.40;5.50;;;0.60;56.00;;;;;;4941081;28;20062;-59
2023/02/23 10:28:36;;;;;;;5.88;4.90;;;0.70;56.00;;;;;;4937809;28;20035;-59
2023/02/23 10:31:13;;;;;;;7.05;5.40;;;0.70;55.90;;;;;;4948119;28;20093;-59
2023/02/23 10:33:41;;;;;;;7.20;5.35;;;0.70;55.80;;;;;;4943574;28;20042;-61
2023/02/23 10:36:20;;;;;;;6.68;5.10;;;0.60;55.60;;;;;;4935749;28;20054;-60
2023/02/23 10:38:46;;;;;;;7.25;5.30;;;0.70;55.50;;;;;;4977365;28;20041;-59
2023/02/23 10:41:12;;;;;;;6.47;5.05;;;0.70;55.40;;;;;;4946186;28;20035;-61
2023/02/23 10:43:38;;;;;;;7.25;5.13;;;0.70;55.40;;;;;;4941201;28;20490;-58
2023/02/23 10:46:04;;;;;;;6.63;5.07;;;0.80;55.30;;;;;;4936148;28;20068;-59
2023/02/23 10:48:49;;;;;;;6.15;5.00;;;0.80;55.30;;;;;;4946590;28;20022;-58
2023/02/23 10:51:25;;;;;;;6.35;5.05;;;0.80;55.10;;;;;;4936028;28;20478;-60
2023/02/23 10:53:52;;;;;;;7.82;5.78;;;0.80;55.20;;;;;;4931537;28;20131;-61
2023/02/23 10:56:19;;;;;;;6.47;4.80;;;0.80;55.00;;;;;;4934243;28;20043;-62
2023/02/23 10:58:56;;;;;;;6.45;4.88;;;0.80;54.90;;;;;;4931628;28;20019;-61
2023/02/23 11:01:46;;;;;;;7.05;5.38;;;0.80;55.00;;;;;;4933687;28;21366;-61
2023/02/23 11:04:27;;;;;;;6.53;4.78;;;0.80;54.90;;;;;;4938295;28;20467;-60
2023/02/23 11:07:07;;;;;;;7.50;5.32;;;0.90;55.00;;;;;;4938185;28;20035;-61
2023/02/23 11:09:34;;;;;;;7.03;5.40;;;0.90;54.90;;;;;;4926972;28;20047;-61
2023/02/23 11:12:02;;;;;;;6.03;5.10;;;0.80;54.80;;;;;;4931814;28;20043;-60
2023/02/23 11:14:30;;;;;;;6.72;5.43;;;0.90;54.90;;;;;;4927823;28;20161;-60
2023/02/23 11:16:57;;;;;;;5.90;4.70;;;0.90;54.70;;;;;;4931803;28;20161;-60
2023/02/23 11:19:35;;;;;;;7.10;5.00;;;0.90;54.70;;;;;;4935490;28;20023;-60
2023/02/23 11:22:02;;;;;;;7.13;4.80;;;0.90;54.60;;;;;;4932793;28;20181;-60
2023/02/23 11:24:35;;;;;;;7.28;5.10;;;0.90;54.60;;;;;;4926870;28;20051;-62
2023/02/23 11:27:06;;;;;;;6.72;5.05;;;0.90;54.50;;;;;;4941282;28;20046;-60
2023/02/23 11:29:42;;;;;;;5.83;5.23;;;1.00;54.60;;;;;;4937692;28;20105;-60
2023/02/23 11:32:14;;;;;;;6.43;4.95;;;0.90;54.50;;;;;;4938334;28;20094;-60
2023/02/23 11:34:40;;;;;;;;;;;1.00;54.40;;;;;;4941431;28;20066;-59
2023/02/23 11:37:07;;;;;;;5.85;4.85;;;0.90;53.80;;;;;;4932065;28;19924;-60
2023/02/23 11:39:33;;;;;;;6.55;4.50;;;1.00;54.40;;;;;;4939382;28;20031;-61
2023/02/23 11:42:13;;;;;;;5.75;4.93;;;1.00;54.40;;;;;;4942975;28;20430;-60
2023/02/23 11:44:39;;;;;;;5.75;4.53;;;1.00;54.20;;;;;;4928165;28;20043;-62
2023/02/23 11:47:15;;;;;;;5.78;4.68;;;1.00;54.00;;;;;;4934491;28;20034;-61
2023/02/23 11:49:45;;;;;;;6.78;4.93;;;1.10;54.80;;;;;;4945986;28;20069;-60
2023/02/23 11:52:24;;;;;;;5.90;4.78;;;1.00;53.90;;;;;;4934725;28;20023;-62
2023/02/23 11:54:56;;;;;;;5.13;4.63;;;1.10;53.80;;;;;;4940061;28;20034;-60
2023/02/23 11:57:25;;;;;;;6.20;4.70;;;1.10;53.60;;;;;;4943589;28;20053;-62
2023/02/23 11:59:52;;;;;;;5.95;4.63;;;1.10;53.50;;;;;;4950972;28;20673;-61
2023/02/23 12:02:27;;;;;;;17.45;10.25;;;1.10;53.40;;;;;;4952014;28;20050;-61
2023/02/23 12:05:30;;;;;;;9.48;6.03;;;1.10;53.40;;;;;;4945270;28;20097;-62
2023/02/23 12:08:16;;;;;;;7.85;5.60;;;1.20;53.30;;;;;;4891872;28;20036;-61
2023/02/23 12:10:56;;;;;;;5.32;4.35;;;1.20;53.40;;;;;;4954447;28;20042;-61
2023/02/23 12:13:31;;;;;;;6.07;4.50;;;1.20;53.40;;;;;;4948137;28;20043;-60
2023/02/23 12:16:00;;;;;;;7.45;4.95;;;1.20;53.30;;;;;;4940342;28;20075;-61
2023/02/23 12:19:00;;;;;;;5.93;4.75;;;1.20;53.20;;;;;;4952345;28;20537;-60
2023/02/23 12:21:36;;;;;;;7.43;5.35;;;1.20;53.10;;;;;;4927762;28;20043;-60
2023/02/23 12:24:20;;;;;;;5.55;4.35;;;1.20;53.10;;;;;;4950064;28;20039;-61
2023/02/23 12:26:55;;;;;;;6.35;4.90;;;1.30;53.10;;;;;;4949450;28;20041;-60
2023/02/23 12:29:58;;;;;;;6.82;4.85;;;1.30;53.20;;;;;;4956611;28;20030;-60
2023/02/23 12:32:28;;;;;;;6.00;4.95;;;1.30;53.10;;;;;;4935403;28;20043;-61
2023/02/23 12:34:58;;;;;;;6.75;4.80;;;1.30;53.10;;;;;;4942131;28;20062;-60
2023/02/23 12:38:09;;;;;;;6.63;4.80;;;1.30;53.10;;;;;;4944819;28;20034;-60
2023/02/23 12:40:40;;;;;;;6.50;4.35;;;1.30;53.00;;;;;;4944720;28;20073;-61
2023/02/23 12:43:18;;;;;;;5.78;4.07;;;1.40;53.00;;;;;;4949270;28;20113;-62
2023/02/23 12:46:31;;;;;;;5.55;4.20;;;1.40;52.80;;;;;;4949921;28;20053;-61
2023/02/23 12:49:24;;;;;;;6.00;4.60;;;1.40;52.70;;;;;;4910607;28;20039;-61
2023/02/23 12:51:56;;;;;;;6.35;4.85;;;1.40;52.40;;;;;;4944763;28;20049;-61
2023/02/23 12:54:21;;;;;;;5.95;4.75;;;1.50;52.60;;;;;;4952995;28;20034;-60
2023/02/23 12:57:04;;;;;;;5.63;4.55;;;1.40;52.50;;;;;;4956464;28;20053;-60
2023/02/23 12:59:48;;;;;;;6.55;4.78;;;1.40;51.90;;;;;;4950605;28;20030;-59
2023/02/23 13:02:22;;;;;;;5.75;4.68;;;1.50;52.10;;;;;;4949714;28;20042;-60
2023/02/23 13:05:27;;;;;;;7.15;4.47;;;1.50;52.20;;;;;;4938468;28;20039;-62
2023/02/23 13:08:25;;;;;;;7.60;5.20;;;1.50;52.00;;;;;;4934930;28;20042;-60
2023/02/23 13:11:00;;;;;;;7.07;4.68;;;1.60;52.10;;;;;;4946011;28;20050;-60
2023/02/23 13:13:49;;;;;;;5.90;3.97;;;1.60;52.20;;;;;;4943327;28;20034;-60
2023/02/23 13:16:31;;;;;;;7.38;4.57;;;1.60;51.90;;;;;;4946770;28;20031;-60
2023/02/23 13:19:14;;;;;;;5.25;3.88;;;1.60;51.80;;;;;;4943743;28;20777;-63
2023/02/23 13:21:47;;;;;;;6.50;4.18;;;1.60;51.60;;;;;;4940744;28;20066;-60
2023/02/23 13:24:19;;;;;;;5.53;4.30;;;1.60;51.50;;;;;;4940384;28;20031;-61
2023/02/23 13:27:00;;;;;;;5.35;4.07;;;1.60;51.40;;;;;;4942948;28;20030;-59
2023/02/23 13:29:39;;;;;;;5.07;4.03;;;1.60;51.50;;;;;;4929902;28;20038;-59
2023/02/23 13:32:18;;;;;;;4.93;3.95;;;1.70;51.70;;;;;;4946278;28;20149;-58
2023/02/23 13:34:59;;;;;;;5.32;4.72;;;1.70;51.50;;;;;;4947548;28;20061;-59
2023/02/23 13:37:33;;;;;;;6.30;4.97;;;1.70;51.70;;;;;;4948270;28;20035;-58
2023/02/23 13:40:41;;;;;;;4.75;4.13;;;1.70;51.80;;;;;;4953641;28;20038;-59
2023/02/23 13:43:23;;;;;;;5.55;4.30;;;1.80;51.70;;;;;;4956482;28;20089;-61
2023/02/23 13:45:54;;;;;;;5.70;4.07;;;1.80;51.50;;;;;;4958185;28;20046;-60
2023/02/23 13:48:45;;;;;;;5.80;3.78;;;1.80;51.10;;;;;;4947947;28;20043;-57
2023/02/23 13:51:42;;;;;;;4.80;3.88;;;1.80;50.80;;;;;;4954285;28;20038;-61
2023/02/23 13:54:15;;;;;;;5.80;3.90;;;1.80;50.80;;;;;;4939591;28;20329;-58
2023/02/23 13:57:02;;;;;;;6.10;4.65;;;1.80;50.80;;;;;;4939508;28;20916;-61
2023/02/23 13:59:35;;;;;;;9.30;6.03;;;1.80;51.00;;;;;;4943997;28;20114;-60
2023/02/23 14:02:22;;;;;;;7.10;4.63;;;1.90;51.00;;;;;;4943107;28;20930;-60
2023/02/23 14:04:48;;;;;;;6.75;4.78;;;1.90;50.90;;;;;;4951853;28;20031;-61
2023/02/23 14:07:29;;;;;;;5.40;3.95;;;1.90;50.80;;;;;;4945724;28;20031;-60
2023/02/23 14:09:59;;;;;;;6.00;4.30;;;2.00;50.40;;;;;;4947118;28;20034;-60
2023/02/23 14:12:39;;;;;;;5.03;4.30;;;1.90;50.40;;;;;;4949541;28;20034;-60
2023/02/23 14:15:26;;;;;;;5.53;4.28;;;1.90;50.60;;;;;;4947810;28;20658;-61
2023/02/23 14:17:59;;;;;;;6.82;4.60;;;1.90;50.70;;;;;;4952490;28;20034;-58
2023/02/23 14:20:38;;;;;;;5.38;4.18;;;1.90;50.70;;;;;;4946399;28;20033;-60
2023/02/23 14:23:19;;;;;;;5.60;4.25;;;1.90;50.80;;;;;;4951638;28;20182;-61
2023/02/23 14:26:08;;;;;;;5.45;4.47;;;1.90;50.80;;;;;;4939161;28;20066;-60
2023/02/23 14:28:37;;;;;;;4.60;4.10;;;1.90;51.00;;;;;;4952948;28;20513;-61
2023/02/23 14:31:09;;;;;;;5.60;4.15;;;1.90;50.80;;;;;;4947207;28;20050;-60
2023/02/23 14:33:38;;;;;;;5.40;4.20;;;1.90;50.90;;;;;;4948335;28;20054;-60
2023/02/23 14:36:22;;;;;;;5.32;4.05;;;1.90;50.70;;;;;;4946968;28;20078;-61